sensor_id;sensor_type;location;lat;lon;timestamp;P1;durP1;ratioP1;P2;durP2;ratioP2
23608;SDS011;11982;50.810;4.442;2023-05-07T00:00:18;11.38;;;5.60;;
23608;SDS011;11982;50.810;4.442;2023-05-07T00:02:44;13.18;;;5.80;;
23608;SDS011;11982;50.810;4.442;2023-05-07T00:05:10;15.85;;;6.45;;
23608;SDS011;11982;50.810;4.442;2023-05-07T00:07:36;15.57;;;5.88;;
23608;SDS011;11982;50.810;4.442;2023-05-07T00:10:02;13.95;;;6.07;;
23608;SDS011;11982;50.810;4.442;2023-05-07T00:12:28;23.00;;;6.43;;
23608;SDS011;11982;50.810;4.442;2023-05-07T00:14:56;15.60;;;6.15;;
23608;SDS011;11982;50.810;4.442;2023-05-07T00:17:22;14.73;;;6.13;;
23608;SDS011;11982;50.810;4.442;2023-05-07T00:19:48;13.70;;;6.78;;
23608;SDS011;11982;50.810;4.442;2023-05-07T00:25:35;15.82;;;6.65;;
23608;SDS011;11982;50.810;4.442;2023-05-07T00:28:01;13.30;;;5.78;;
23608;SDS011;11982;50.810;4.442;2023-05-07T00:30:28;15.57;;;6.22;;
23608;SDS011;11982;50.810;4.442;2023-05-07T00:32:54;14.60;;;6.75;;
23608;SDS011;11982;50.810;4.442;2023-05-07T00:35:20;15.80;;;6.13;;
23608;SDS011;11982;50.810;4.442;2023-05-07T00:37:47;15.07;;;6.25;;
23608;SDS011;11982;50.810;4.442;2023-05-07T00:40:13;12.30;;;6.03;;
23608;SDS011;11982;50.810;4.442;2023-05-07T00:42:39;18.02;;;6.85;;
23608;SDS011;11982;50.810;4.442;2023-05-07T00:45:05;14.63;;;6.68;;
23608;SDS011;11982;50.810;4.442;2023-05-07T00:47:32;13.43;;;6.13;;
23608;SDS011;11982;50.810;4.442;2023-05-07T00:49:58;19.45;;;5.75;;
23608;SDS011;11982;50.810;4.442;2023-05-07T00:55:46;13.85;;;6.57;;
23608;SDS011;11982;50.810;4.442;2023-05-07T00:58:13;15.32;;;5.82;;
23608;SDS011;11982;50.810;4.442;2023-05-07T01:00:38;12.38;;;5.50;;
23608;SDS011;11982;50.810;4.442;2023-05-07T01:03:04;14.45;;;6.45;;
23608;SDS011;11982;50.810;4.442;2023-05-07T01:05:30;13.02;;;5.75;;
23608;SDS011;11982;50.810;4.442;2023-05-07T01:11:18;13.05;;;6.03;;
23608;SDS011;11982;50.810;4.442;2023-05-07T01:13:45;13.50;;;5.72;;
23608;SDS011;11982;50.810;4.442;2023-05-07T01:16:12;12.55;;;5.53;;
23608;SDS011;11982;50.810;4.442;2023-05-07T01:18:37;15.35;;;5.95;;
23608;SDS011;11982;50.810;4.442;2023-05-07T01:21:04;17.27;;;6.20;;
23608;SDS011;11982;50.810;4.442;2023-05-07T01:23:30;15.00;;;5.90;;
23608;SDS011;11982;50.810;4.442;2023-05-07T01:25:56;16.52;;;5.65;;
23608;SDS011;11982;50.810;4.442;2023-05-07T01:28:22;12.98;;;6.00;;
23608;SDS011;11982;50.810;4.442;2023-05-07T01:30:52;13.60;;;6.55;;
23608;SDS011;11982;50.810;4.442;2023-05-07T01:33:21;9.27;;;5.22;;
23608;SDS011;11982;50.810;4.442;2023-05-07T01:35:48;15.18;;;5.30;;
23608;SDS011;11982;50.810;4.442;2023-05-07T01:41:39;10.88;;;5.45;;
23608;SDS011;11982;50.810;4.442;2023-05-07T01:44:05;11.35;;;5.85;;
23608;SDS011;11982;50.810;4.442;2023-05-07T01:46:31;11.15;;;6.25;;
23608;SDS011;11982;50.810;4.442;2023-05-07T01:48:57;12.82;;;6.38;;
23608;SDS011;11982;50.810;4.442;2023-05-07T01:51:23;11.05;;;5.45;;
23608;SDS011;11982;50.810;4.442;2023-05-07T01:53:50;13.60;;;6.43;;
23608;SDS011;11982;50.810;4.442;2023-05-07T01:56:18;16.88;;;5.80;;
23608;SDS011;11982;50.810;4.442;2023-05-07T01:58:45;12.43;;;5.70;;
23608;SDS011;11982;50.810;4.442;2023-05-07T02:01:12;12.57;;;5.93;;
23608;SDS011;11982;50.810;4.442;2023-05-07T02:03:38;14.75;;;5.57;;
23608;SDS011;11982;50.810;4.442;2023-05-07T02:06:04;8.02;;;5.50;;
23608;SDS011;11982;50.810;4.442;2023-05-07T02:11:51;12.75;;;5.80;;
23608;SDS011;11982;50.810;4.442;2023-05-07T02:14:17;18.38;;;6.30;;
23608;SDS011;11982;50.810;4.442;2023-05-07T02:16:45;15.07;;;6.07;;
23608;SDS011;11982;50.810;4.442;2023-05-07T02:19:10;12.98;;;5.28;;
23608;SDS011;11982;50.810;4.442;2023-05-07T02:21:36;10.13;;;5.68;;
23608;SDS011;11982;50.810;4.442;2023-05-07T02:24:01;16.50;;;6.38;;
23608;SDS011;11982;50.810;4.442;2023-05-07T02:26:27;11.38;;;5.97;;
23608;SDS011;11982;50.810;4.442;2023-05-07T02:28:53;14.52;;;5.90;;
23608;SDS011;11982;50.810;4.442;2023-05-07T02:31:18;13.27;;;6.25;;
23608;SDS011;11982;50.810;4.442;2023-05-07T02:33:44;13.45;;;5.68;;
23608;SDS011;11982;50.810;4.442;2023-05-07T02:36:10;13.07;;;5.97;;
23608;SDS011;11982;50.810;4.442;2023-05-07T02:41:58;11.82;;;6.00;;
23608;SDS011;11982;50.810;4.442;2023-05-07T02:44:24;11.80;;;6.38;;
23608;SDS011;11982;50.810;4.442;2023-05-07T02:46:50;13.95;;;6.80;;
23608;SDS011;11982;50.810;4.442;2023-05-07T02:49:16;14.88;;;6.03;;
23608;SDS011;11982;50.810;4.442;2023-05-07T02:51:41;19.65;;;6.50;;
23608;SDS011;11982;50.810;4.442;2023-05-07T02:57:29;13.43;;;6.30;;
23608;SDS011;11982;50.810;4.442;2023-05-07T02:59:54;15.02;;;7.65;;
23608;SDS011;11982;50.810;4.442;2023-05-07T03:02:20;14.38;;;6.88;;
23608;SDS011;11982;50.810;4.442;2023-05-07T03:04:46;20.25;;;7.47;;
23608;SDS011;11982;50.810;4.442;2023-05-07T03:07:12;12.40;;;6.55;;
23608;SDS011;11982;50.810;4.442;2023-05-07T03:09:37;16.70;;;6.57;;
23608;SDS011;11982;50.810;4.442;2023-05-07T03:12:03;18.70;;;6.38;;
23608;SDS011;11982;50.810;4.442;2023-05-07T03:14:29;15.32;;;6.63;;
23608;SDS011;11982;50.810;4.442;2023-05-07T03:16:55;14.43;;;7.22;;
23608;SDS011;11982;50.810;4.442;2023-05-07T03:19:20;18.92;;;7.88;;
23608;SDS011;11982;50.810;4.442;2023-05-07T03:21:46;16.08;;;6.65;;
23608;SDS011;11982;50.810;4.442;2023-05-07T03:27:34;11.05;;;5.97;;
23608;SDS011;11982;50.810;4.442;2023-05-07T03:29:59;14.30;;;7.07;;
23608;SDS011;11982;50.810;4.442;2023-05-07T03:32:25;12.27;;;6.38;;
23608;SDS011;11982;50.810;4.442;2023-05-07T03:34:51;12.23;;;5.68;;
23608;SDS011;11982;50.810;4.442;2023-05-07T03:37:17;14.38;;;6.07;;
23608;SDS011;11982;50.810;4.442;2023-05-07T03:43:05;14.90;;;6.50;;
23608;SDS011;11982;50.810;4.442;2023-05-07T03:45:30;11.55;;;5.90;;
23608;SDS011;11982;50.810;4.442;2023-05-07T03:47:56;9.48;;;6.38;;
23608;SDS011;11982;50.810;4.442;2023-05-07T03:50:22;13.00;;;6.10;;
23608;SDS011;11982;50.810;4.442;2023-05-07T03:52:47;16.30;;;6.30;;
23608;SDS011;11982;50.810;4.442;2023-05-07T03:55:13;17.40;;;6.45;;
23608;SDS011;11982;50.810;4.442;2023-05-07T03:57:38;14.38;;;6.32;;
23608;SDS011;11982;50.810;4.442;2023-05-07T04:00:04;13.00;;;5.85;;
23608;SDS011;11982;50.810;4.442;2023-05-07T04:02:32;15.30;;;6.80;;
23608;SDS011;11982;50.810;4.442;2023-05-07T04:04:58;11.15;;;5.70;;
23608;SDS011;11982;50.810;4.442;2023-05-07T04:07:23;12.40;;;6.25;;
23608;SDS011;11982;50.810;4.442;2023-05-07T04:13:11;12.13;;;5.88;;
23608;SDS011;11982;50.810;4.442;2023-05-07T04:15:36;10.35;;;5.85;;
23608;SDS011;11982;50.810;4.442;2023-05-07T04:18:02;11.25;;;5.90;;
23608;SDS011;11982;50.810;4.442;2023-05-07T04:20:28;14.32;;;5.97;;
23608;SDS011;11982;50.810;4.442;2023-05-07T04:22:53;10.18;;;6.13;;
23608;SDS011;11982;50.810;4.442;2023-05-07T04:25:19;12.18;;;6.03;;
23608;SDS011;11982;50.810;4.442;2023-05-07T04:27:45;10.73;;;5.30;;
23608;SDS011;11982;50.810;4.442;2023-05-07T04:30:11;12.18;;;5.78;;
23608;SDS011;11982;50.810;4.442;2023-05-07T04:32:37;10.55;;;5.85;;
23608;SDS011;11982;50.810;4.442;2023-05-07T04:35:04;9.98;;;5.53;;
23608;SDS011;11982;50.810;4.442;2023-05-07T04:37:31;13.00;;;5.60;;
23608;SDS011;11982;50.810;4.442;2023-05-07T04:43:19;12.32;;;5.38;;
23608;SDS011;11982;50.810;4.442;2023-05-07T04:45:44;15.73;;;6.40;;
23608;SDS011;11982;50.810;4.442;2023-05-07T04:48:10;8.52;;;5.55;;
23608;SDS011;11982;50.810;4.442;2023-05-07T04:50:36;13.43;;;4.82;;
23608;SDS011;11982;50.810;4.442;2023-05-07T04:53:02;10.82;;;5.45;;
23608;SDS011;11982;50.810;4.442;2023-05-07T04:55:28;11.65;;;5.75;;
23608;SDS011;11982;50.810;4.442;2023-05-07T04:57:53;8.30;;;5.85;;
23608;SDS011;11982;50.810;4.442;2023-05-07T05:00:19;9.02;;;5.75;;
23608;SDS011;11982;50.810;4.442;2023-05-07T05:02:45;15.30;;;6.43;;
23608;SDS011;11982;50.810;4.442;2023-05-07T05:05:11;9.52;;;5.57;;
23608;SDS011;11982;50.810;4.442;2023-05-07T05:07:36;14.43;;;6.25;;
23608;SDS011;11982;50.810;4.442;2023-05-07T05:13:24;11.07;;;6.38;;
23608;SDS011;11982;50.810;4.442;2023-05-07T05:15:50;16.38;;;6.10;;
23608;SDS011;11982;50.810;4.442;2023-05-07T05:18:15;12.20;;;5.47;;
23608;SDS011;11982;50.810;4.442;2023-05-07T05:20:41;12.23;;;5.93;;
23608;SDS011;11982;50.810;4.442;2023-05-07T05:23:07;13.35;;;5.28;;
23608;SDS011;11982;50.810;4.442;2023-05-07T05:28:55;12.60;;;5.93;;
23608;SDS011;11982;50.810;4.442;2023-05-07T05:31:20;9.38;;;4.85;;
23608;SDS011;11982;50.810;4.442;2023-05-07T05:33:46;15.52;;;5.45;;
23608;SDS011;11982;50.810;4.442;2023-05-07T05:36:12;11.40;;;5.13;;
23608;SDS011;11982;50.810;4.442;2023-05-07T05:38:38;11.55;;;5.95;;
23608;SDS011;11982;50.810;4.442;2023-05-07T05:41:04;11.82;;;5.45;;
23608;SDS011;11982;50.810;4.442;2023-05-07T05:43:30;12.63;;;5.43;;
23608;SDS011;11982;50.810;4.442;2023-05-07T05:45:56;12.48;;;5.85;;
23608;SDS011;11982;50.810;4.442;2023-05-07T05:48:22;12.68;;;5.47;;
23608;SDS011;11982;50.810;4.442;2023-05-07T05:50:48;15.43;;;6.00;;
23608;SDS011;11982;50.810;4.442;2023-05-07T05:53:14;14.40;;;5.53;;
23608;SDS011;11982;50.810;4.442;2023-05-07T05:59:02;14.55;;;5.80;;
23608;SDS011;11982;50.810;4.442;2023-05-07T06:01:27;10.05;;;5.13;;
23608;SDS011;11982;50.810;4.442;2023-05-07T06:03:53;14.18;;;4.88;;
23608;SDS011;11982;50.810;4.442;2023-05-07T06:06:19;12.38;;;5.35;;
23608;SDS011;11982;50.810;4.442;2023-05-07T06:08:44;12.52;;;5.28;;
23608;SDS011;11982;50.810;4.442;2023-05-07T06:14:33;13.07;;;5.07;;
23608;SDS011;11982;50.810;4.442;2023-05-07T06:16:58;11.88;;;5.38;;
23608;SDS011;11982;50.810;4.442;2023-05-07T06:19:24;10.20;;;5.22;;
23608;SDS011;11982;50.810;4.442;2023-05-07T06:21:51;15.27;;;5.40;;
23608;SDS011;11982;50.810;4.442;2023-05-07T06:24:17;14.32;;;5.40;;
23608;SDS011;11982;50.810;4.442;2023-05-07T06:26:42;17.95;;;6.05;;
23608;SDS011;11982;50.810;4.442;2023-05-07T06:29:08;18.40;;;6.13;;
23608;SDS011;11982;50.810;4.442;2023-05-07T06:31:34;13.75;;;5.47;;
23608;SDS011;11982;50.810;4.442;2023-05-07T06:33:59;18.48;;;5.85;;
23608;SDS011;11982;50.810;4.442;2023-05-07T06:36:27;14.15;;;6.35;;
23608;SDS011;11982;50.810;4.442;2023-05-07T06:38:53;17.05;;;6.18;;
23608;SDS011;11982;50.810;4.442;2023-05-07T06:44:40;21.98;;;6.55;;
23608;SDS011;11982;50.810;4.442;2023-05-07T06:47:06;13.02;;;6.68;;
23608;SDS011;11982;50.810;4.442;2023-05-07T06:49:32;21.75;;;6.50;;
23608;SDS011;11982;50.810;4.442;2023-05-07T06:51:58;11.60;;;6.13;;
23608;SDS011;11982;50.810;4.442;2023-05-07T06:54:24;15.32;;;6.60;;
23608;SDS011;11982;50.810;4.442;2023-05-07T06:56:49;18.73;;;6.53;;
23608;SDS011;11982;50.810;4.442;2023-05-07T06:59:15;19.45;;;6.40;;
23608;SDS011;11982;50.810;4.442;2023-05-07T07:01:41;16.27;;;7.55;;
23608;SDS011;11982;50.810;4.442;2023-05-07T07:04:07;15.50;;;7.63;;
23608;SDS011;11982;50.810;4.442;2023-05-07T07:06:32;16.35;;;7.10;;
23608;SDS011;11982;50.810;4.442;2023-05-07T07:08:58;16.48;;;7.93;;
23608;SDS011;11982;50.810;4.442;2023-05-07T07:14:47;17.35;;;8.18;;
23608;SDS011;11982;50.810;4.442;2023-05-07T07:17:12;16.85;;;8.00;;
23608;SDS011;11982;50.810;4.442;2023-05-07T07:19:38;17.48;;;8.10;;
23608;SDS011;11982;50.810;4.442;2023-05-07T07:22:04;17.50;;;8.27;;
23608;SDS011;11982;50.810;4.442;2023-05-07T07:24:30;13.93;;;7.50;;
23608;SDS011;11982;50.810;4.442;2023-05-07T07:30:17;16.35;;;7.60;;
23608;SDS011;11982;50.810;4.442;2023-05-07T07:32:43;18.45;;;8.40;;
23608;SDS011;11982;50.810;4.442;2023-05-07T07:35:09;18.80;;;7.63;;
23608;SDS011;11982;50.810;4.442;2023-05-07T07:37:34;14.43;;;7.50;;
23608;SDS011;11982;50.810;4.442;2023-05-07T07:40:00;18.05;;;7.90;;
23608;SDS011;11982;50.810;4.442;2023-05-07T07:42:26;17.60;;;8.23;;
23608;SDS011;11982;50.810;4.442;2023-05-07T07:44:52;13.95;;;7.78;;
23608;SDS011;11982;50.810;4.442;2023-05-07T07:47:17;11.48;;;7.97;;
23608;SDS011;11982;50.810;4.442;2023-05-07T07:49:43;17.60;;;7.95;;
23608;SDS011;11982;50.810;4.442;2023-05-07T07:52:08;14.68;;;8.00;;
23608;SDS011;11982;50.810;4.442;2023-05-07T07:54:34;13.00;;;7.00;;
23608;SDS011;11982;50.810;4.442;2023-05-07T08:00:22;14.45;;;6.90;;
23608;SDS011;11982;50.810;4.442;2023-05-07T08:02:48;17.40;;;7.20;;
23608;SDS011;11982;50.810;4.442;2023-05-07T08:05:14;14.35;;;8.02;;
23608;SDS011;11982;50.810;4.442;2023-05-07T08:07:40;15.63;;;7.82;;
23608;SDS011;11982;50.810;4.442;2023-05-07T08:10:06;14.05;;;7.35;;
23608;SDS011;11982;50.810;4.442;2023-05-07T08:15:53;15.77;;;7.80;;
23608;SDS011;11982;50.810;4.442;2023-05-07T08:18:19;18.10;;;7.50;;
23608;SDS011;11982;50.810;4.442;2023-05-07T08:20:45;15.95;;;7.35;;
23608;SDS011;11982;50.810;4.442;2023-05-07T08:23:11;12.80;;;7.15;;
23608;SDS011;11982;50.810;4.442;2023-05-07T08:25:37;12.00;;;6.65;;
23608;SDS011;11982;50.810;4.442;2023-05-07T08:28:02;11.95;;;6.43;;
23608;SDS011;11982;50.810;4.442;2023-05-07T08:30:28;12.20;;;7.03;;
23608;SDS011;11982;50.810;4.442;2023-05-07T08:32:54;12.65;;;7.35;;
23608;SDS011;11982;50.810;4.442;2023-05-07T08:35:19;12.18;;;6.60;;
23608;SDS011;11982;50.810;4.442;2023-05-07T08:37:45;16.33;;;7.32;;
23608;SDS011;11982;50.810;4.442;2023-05-07T08:40:11;11.70;;;6.30;;
23608;SDS011;11982;50.810;4.442;2023-05-07T08:45:59;13.05;;;7.00;;
23608;SDS011;11982;50.810;4.442;2023-05-07T08:48:27;10.35;;;6.68;;
23608;SDS011;11982;50.810;4.442;2023-05-07T08:50:57;16.13;;;7.18;;
23608;SDS011;11982;50.810;4.442;2023-05-07T08:53:23;11.63;;;6.65;;
23608;SDS011;11982;50.810;4.442;2023-05-07T08:55:49;15.00;;;7.32;;
23608;SDS011;11982;50.810;4.442;2023-05-07T08:58:15;8.32;;;6.50;;
23608;SDS011;11982;50.810;4.442;2023-05-07T09:00:41;11.02;;;6.60;;
23608;SDS011;11982;50.810;4.442;2023-05-07T09:03:07;12.90;;;7.03;;
23608;SDS011;11982;50.810;4.442;2023-05-07T09:05:33;10.50;;;6.53;;
23608;SDS011;11982;50.810;4.442;2023-05-07T09:07:59;14.27;;;6.30;;
23608;SDS011;11982;50.810;4.442;2023-05-07T09:10:27;12.23;;;5.63;;
23608;SDS011;11982;50.810;4.442;2023-05-07T09:16:16;11.57;;;6.20;;
23608;SDS011;11982;50.810;4.442;2023-05-07T09:18:42;18.33;;;6.00;;
23608;SDS011;11982;50.810;4.442;2023-05-07T09:21:14;11.13;;;5.72;;
23608;SDS011;11982;50.810;4.442;2023-05-07T09:23:41;8.85;;;5.63;;
23608;SDS011;11982;50.810;4.442;2023-05-07T09:26:07;12.52;;;6.13;;
23608;SDS011;11982;50.810;4.442;2023-05-07T09:28:39;9.05;;;6.00;;
23608;SDS011;11982;50.810;4.442;2023-05-07T09:31:09;13.27;;;6.43;;
23608;SDS011;11982;50.810;4.442;2023-05-07T09:33:35;12.63;;;6.00;;
23608;SDS011;11982;50.810;4.442;2023-05-07T09:36:02;10.75;;;5.65;;
23608;SDS011;11982;50.810;4.442;2023-05-07T09:38:32;13.88;;;5.25;;
23608;SDS011;11982;50.810;4.442;2023-05-07T09:41:02;9.23;;;4.82;;
23608;SDS011;11982;50.810;4.442;2023-05-07T09:46:53;9.02;;;4.45;;
23608;SDS011;11982;50.810;4.442;2023-05-07T09:49:23;11.18;;;4.78;;
23608;SDS011;11982;50.810;4.442;2023-05-07T09:51:50;11.23;;;4.70;;
23608;SDS011;11982;50.810;4.442;2023-05-07T09:54:17;8.38;;;4.45;;
23608;SDS011;11982;50.810;4.442;2023-05-07T09:56:48;10.68;;;4.38;;
23608;SDS011;11982;50.810;4.442;2023-05-07T09:59:14;9.98;;;4.30;;
23608;SDS011;11982;50.810;4.442;2023-05-07T10:01:42;11.00;;;3.78;;
23608;SDS011;11982;50.810;4.442;2023-05-07T10:04:10;11.73;;;4.25;;
23608;SDS011;11982;50.810;4.442;2023-05-07T10:06:37;10.10;;;4.40;;
23608;SDS011;11982;50.810;4.442;2023-05-07T10:09:03;11.20;;;4.47;;
23608;SDS011;11982;50.810;4.442;2023-05-07T10:11:35;11.20;;;4.30;;
23608;SDS011;11982;50.810;4.442;2023-05-07T10:17:23;5.50;;;3.90;;
23608;SDS011;11982;50.810;4.442;2023-05-07T10:19:49;6.95;;;3.75;;
23608;SDS011;11982;50.810;4.442;2023-05-07T10:22:18;9.20;;;3.42;;
23608;SDS011;11982;50.810;4.442;2023-05-07T10:24:45;8.30;;;3.72;;
23608;SDS011;11982;50.810;4.442;2023-05-07T10:27:17;6.65;;;2.92;;
23608;SDS011;11982;50.810;4.442;2023-05-07T10:32:30;6.78;;;3.55;;
23608;SDS011;11982;50.810;4.442;2023-05-07T10:35:06;8.13;;;3.60;;
23608;SDS011;11982;50.810;4.442;2023-05-07T10:37:45;6.95;;;3.60;;
23608;SDS011;11982;50.810;4.442;2023-05-07T10:40:11;9.90;;;4.20;;
23608;SDS011;11982;50.810;4.442;2023-05-07T10:42:38;6.55;;;3.90;;
23608;SDS011;11982;50.810;4.442;2023-05-07T10:45:13;10.55;;;3.88;;
23608;SDS011;11982;50.810;4.442;2023-05-07T10:50:35;8.85;;;3.97;;
23608;SDS011;11982;50.810;4.442;2023-05-07T10:53:20;10.07;;;4.43;;
23608;SDS011;11982;50.810;4.442;2023-05-07T10:56:24;8.48;;;3.97;;
23608;SDS011;11982;50.810;4.442;2023-05-07T10:58:40;7.00;;;3.58;;
23608;SDS011;11982;50.810;4.442;2023-05-07T11:01:06;7.72;;;4.20;;
23608;SDS011;11982;50.810;4.442;2023-05-07T11:03:31;7.10;;;3.60;;
23608;SDS011;11982;50.810;4.442;2023-05-07T11:06:10;8.98;;;3.78;;
23608;SDS011;11982;50.810;4.442;2023-05-07T11:11:17;6.60;;;3.40;;
23608;SDS011;11982;50.810;4.442;2023-05-07T11:13:45;8.15;;;3.30;;
23608;SDS011;11982;50.810;4.442;2023-05-07T11:16:18;7.57;;;3.38;;
23608;SDS011;11982;50.810;4.442;2023-05-07T11:18:48;8.48;;;3.17;;
23608;SDS011;11982;50.810;4.442;2023-05-07T11:21:33;6.43;;;3.22;;
23608;SDS011;11982;50.810;4.442;2023-05-07T11:23:59;3.65;;;3.30;;
23608;SDS011;11982;50.810;4.442;2023-05-07T11:26:27;5.28;;;2.60;;
23608;SDS011;11982;50.810;4.442;2023-05-07T11:28:54;6.10;;;3.35;;
23608;SDS011;11982;50.810;4.442;2023-05-07T11:31:21;5.05;;;2.92;;
23608;SDS011;11982;50.810;4.442;2023-05-07T11:33:48;7.03;;;3.40;;
23608;SDS011;11982;50.810;4.442;2023-05-07T11:36:14;7.85;;;3.22;;
23608;SDS011;11982;50.810;4.442;2023-05-07T11:38:40;5.63;;;3.38;;
23608;SDS011;11982;50.810;4.442;2023-05-07T11:41:07;7.40;;;3.53;;
23608;SDS011;11982;50.810;4.442;2023-05-07T11:43:33;5.07;;;3.20;;
23608;SDS011;11982;50.810;4.442;2023-05-07T11:48:36;4.43;;;2.90;;
23608;SDS011;11982;50.810;4.442;2023-05-07T11:51:03;8.48;;;3.40;;
23608;SDS011;11982;50.810;4.442;2023-05-07T11:53:48;5.65;;;2.97;;
23608;SDS011;11982;50.810;4.442;2023-05-07T11:56:15;6.38;;;2.97;;
23608;SDS011;11982;50.810;4.442;2023-05-07T11:58:42;8.82;;;2.88;;
23608;SDS011;11982;50.810;4.442;2023-05-07T12:01:09;6.65;;;2.70;;
23608;SDS011;11982;50.810;4.442;2023-05-07T12:03:36;5.25;;;2.47;;
23608;SDS011;11982;50.810;4.442;2023-05-07T12:06:02;6.00;;;2.50;;
23608;SDS011;11982;50.810;4.442;2023-05-07T12:08:35;4.65;;;2.60;;
23608;SDS011;11982;50.810;4.442;2023-05-07T12:11:03;6.55;;;2.50;;
23608;SDS011;11982;50.810;4.442;2023-05-07T12:13:31;5.15;;;2.40;;
23608;SDS011;11982;50.810;4.442;2023-05-07T12:15:57;5.07;;;2.55;;
23608;SDS011;11982;50.810;4.442;2023-05-07T12:18:24;6.05;;;2.40;;
23608;SDS011;11982;50.810;4.442;2023-05-07T12:20:50;4.80;;;2.70;;
23608;SDS011;11982;50.810;4.442;2023-05-07T12:23:16;3.55;;;2.80;;
23608;SDS011;11982;50.810;4.442;2023-05-07T12:25:42;6.78;;;3.10;;
23608;SDS011;11982;50.810;4.442;2023-05-07T12:28:15;4.85;;;2.70;;
23608;SDS011;11982;50.810;4.442;2023-05-07T12:34:44;7.63;;;3.38;;
23608;SDS011;11982;50.810;4.442;2023-05-07T12:37:10;7.18;;;3.10;;
23608;SDS011;11982;50.810;4.442;2023-05-07T12:39:37;6.00;;;3.17;;
23608;SDS011;11982;50.810;4.442;2023-05-07T12:42:03;5.93;;;3.20;;
23608;SDS011;11982;50.810;4.442;2023-05-07T12:47:51;7.80;;;3.50;;
23608;SDS011;11982;50.810;4.442;2023-05-07T12:50:16;6.80;;;4.10;;
23608;SDS011;11982;50.810;4.442;2023-05-07T12:52:43;5.43;;;3.13;;
23608;SDS011;11982;50.810;4.442;2023-05-07T12:55:11;7.10;;;3.70;;
23608;SDS011;11982;50.810;4.442;2023-05-07T12:57:42;5.35;;;4.03;;
23608;SDS011;11982;50.810;4.442;2023-05-07T13:03:34;6.30;;;3.88;;
23608;SDS011;11982;50.810;4.442;2023-05-07T13:06:03;5.53;;;3.75;;
23608;SDS011;11982;50.810;4.442;2023-05-07T13:08:31;4.40;;;3.67;;
23608;SDS011;11982;50.810;4.442;2023-05-07T13:10:59;5.80;;;3.47;;
23608;SDS011;11982;50.810;4.442;2023-05-07T13:13:31;7.18;;;4.20;;
23608;SDS011;11982;50.810;4.442;2023-05-07T13:19:21;6.47;;;4.15;;
23608;SDS011;11982;50.810;4.442;2023-05-07T13:21:47;5.78;;;4.10;;
23608;SDS011;11982;50.810;4.442;2023-05-07T13:24:14;8.35;;;4.35;;
23608;SDS011;11982;50.810;4.442;2023-05-07T13:26:40;4.78;;;4.10;;
23608;SDS011;11982;50.810;4.442;2023-05-07T13:29:05;7.25;;;5.10;;
23608;SDS011;11982;50.810;4.442;2023-05-07T13:34:53;10.85;;;6.45;;
23608;SDS011;11982;50.810;4.442;2023-05-07T13:37:18;9.60;;;5.80;;
23608;SDS011;11982;50.810;4.442;2023-05-07T13:39:45;7.75;;;5.85;;
23608;SDS011;11982;50.810;4.442;2023-05-07T13:42:10;10.15;;;6.00;;
23608;SDS011;11982;50.810;4.442;2023-05-07T13:44:36;7.45;;;5.65;;
23608;SDS011;11982;50.810;4.442;2023-05-07T13:50:24;9.00;;;6.93;;
23608;SDS011;11982;50.810;4.442;2023-05-07T13:52:51;10.32;;;8.38;;
23608;SDS011;11982;50.810;4.442;2023-05-07T13:55:18;10.85;;;8.75;;
23608;SDS011;11982;50.810;4.442;2023-05-07T13:57:44;14.73;;;11.40;;
23608;SDS011;11982;50.810;4.442;2023-05-07T14:00:11;12.27;;;10.98;;
23608;SDS011;11982;50.810;4.442;2023-05-07T14:02:37;16.08;;;11.20;;
23608;SDS011;11982;50.810;4.442;2023-05-07T14:05:03;14.35;;;10.52;;
23608;SDS011;11982;50.810;4.442;2023-05-07T14:07:29;12.77;;;10.07;;
23608;SDS011;11982;50.810;4.442;2023-05-07T14:09:56;15.85;;;12.65;;
23608;SDS011;11982;50.810;4.442;2023-05-07T14:12:22;14.02;;;11.98;;
23608;SDS011;11982;50.810;4.442;2023-05-07T14:14:47;13.48;;;12.05;;
23608;SDS011;11982;50.810;4.442;2023-05-07T14:20:36;16.65;;;13.50;;
23608;SDS011;11982;50.810;4.442;2023-05-07T14:23:02;16.55;;;13.98;;
23608;SDS011;11982;50.810;4.442;2023-05-07T14:25:28;18.73;;;13.77;;
23608;SDS011;11982;50.810;4.442;2023-05-07T14:27:54;15.00;;;13.13;;
23608;SDS011;11982;50.810;4.442;2023-05-07T14:30:20;17.20;;;13.82;;
23608;SDS011;11982;50.810;4.442;2023-05-07T14:32:47;16.15;;;13.43;;
23608;SDS011;11982;50.810;4.442;2023-05-07T14:35:12;15.68;;;12.95;;
23608;SDS011;11982;50.810;4.442;2023-05-07T14:37:38;17.23;;;12.57;;
23608;SDS011;11982;50.810;4.442;2023-05-07T14:40:04;16.15;;;12.48;;
23608;SDS011;11982;50.810;4.442;2023-05-07T14:42:31;14.35;;;11.88;;
23608;SDS011;11982;50.810;4.442;2023-05-07T14:44:56;15.07;;;12.52;;
23608;SDS011;11982;50.810;4.442;2023-05-07T14:50:46;16.15;;;12.98;;
23608;SDS011;11982;50.810;4.442;2023-05-07T14:53:13;17.25;;;12.82;;
23608;SDS011;11982;50.810;4.442;2023-05-07T14:55:38;17.98;;;12.68;;
23608;SDS011;11982;50.810;4.442;2023-05-07T14:58:04;17.13;;;12.90;;
23608;SDS011;11982;50.810;4.442;2023-05-07T15:00:30;16.67;;;11.98;;
23608;SDS011;11982;50.810;4.442;2023-05-07T15:06:20;13.07;;;10.93;;
23608;SDS011;11982;50.810;4.442;2023-05-07T15:08:46;11.90;;;9.38;;
23608;SDS011;11982;50.810;4.442;2023-05-07T15:11:12;12.27;;;9.35;;
23608;SDS011;11982;50.810;4.442;2023-05-07T15:13:37;11.57;;;9.48;;
23608;SDS011;11982;50.810;4.442;2023-05-07T15:16:03;10.98;;;9.70;;
23608;SDS011;11982;50.810;4.442;2023-05-07T15:18:29;13.50;;;10.98;;
23608;SDS011;11982;50.810;4.442;2023-05-07T15:20:55;15.95;;;12.20;;
23608;SDS011;11982;50.810;4.442;2023-05-07T15:23:22;14.20;;;11.38;;
23608;SDS011;11982;50.810;4.442;2023-05-07T15:25:47;14.50;;;12.68;;
23608;SDS011;11982;50.810;4.442;2023-05-07T15:28:13;14.60;;;11.43;;
23608;SDS011;11982;50.810;4.442;2023-05-07T15:30:39;12.15;;;10.77;;
23608;SDS011;11982;50.810;4.442;2023-05-07T15:36:26;10.90;;;9.25;;
23608;SDS011;11982;50.810;4.442;2023-05-07T15:38:52;13.48;;;10.48;;
23608;SDS011;11982;50.810;4.442;2023-05-07T15:41:18;12.82;;;8.82;;
23608;SDS011;11982;50.810;4.442;2023-05-07T15:43:44;9.45;;;8.05;;
23608;SDS011;11982;50.810;4.442;2023-05-07T15:46:16;11.07;;;9.13;;
23608;SDS011;11982;50.810;4.442;2023-05-07T15:52:05;10.05;;;9.05;;
23608;SDS011;11982;50.810;4.442;2023-05-07T15:54:31;9.80;;;8.90;;
23608;SDS011;11982;50.810;4.442;2023-05-07T15:56:56;10.25;;;8.57;;
23608;SDS011;11982;50.810;4.442;2023-05-07T15:59:22;11.75;;;8.85;;
23608;SDS011;11982;50.810;4.442;2023-05-07T16:01:48;10.02;;;9.02;;
23608;SDS011;11982;50.810;4.442;2023-05-07T16:04:13;11.27;;;8.90;;
23608;SDS011;11982;50.810;4.442;2023-05-07T16:06:39;15.48;;;9.75;;
23608;SDS011;11982;50.810;4.442;2023-05-07T16:09:05;11.00;;;9.48;;
23608;SDS011;11982;50.810;4.442;2023-05-07T16:11:31;10.98;;;9.43;;
23608;SDS011;11982;50.810;4.442;2023-05-07T16:13:58;10.70;;;9.43;;
23608;SDS011;11982;50.810;4.442;2023-05-07T16:16:25;13.23;;;9.60;;
23608;SDS011;11982;50.810;4.442;2023-05-07T16:22:15;10.98;;;9.88;;
23608;SDS011;11982;50.810;4.442;2023-05-07T16:24:41;12.82;;;10.48;;
23608;SDS011;11982;50.810;4.442;2023-05-07T16:27:07;12.60;;;10.82;;
23608;SDS011;11982;50.810;4.442;2023-05-07T16:29:33;11.70;;;10.52;;
23608;SDS011;11982;50.810;4.442;2023-05-07T16:31:58;13.95;;;11.13;;
23608;SDS011;11982;50.810;4.442;2023-05-07T16:34:24;13.40;;;11.07;;
23608;SDS011;11982;50.810;4.442;2023-05-07T16:36:50;13.43;;;11.23;;
23608;SDS011;11982;50.810;4.442;2023-05-07T16:39:16;12.25;;;10.85;;
23608;SDS011;11982;50.810;4.442;2023-05-07T16:41:41;12.32;;;11.02;;
23608;SDS011;11982;50.810;4.442;2023-05-07T16:44:07;16.90;;;11.80;;